sensor_id;sensor_type;location;lat;lon;timestamp;P1;durP1;ratioP1;P2;durP2;ratioP2
8219;SDS011;4151;51.110;7.020;2024-03-23T00:54:37;31.67;;;8.00;;
8219;SDS011;4151;51.110;7.020;2024-03-23T00:57:03;24.53;;;8.17;;
8219;SDS011;4151;51.110;7.020;2024-03-23T00:59:28;26.00;;;7.70;;
8219;SDS011;4151;51.110;7.020;2024-03-23T01:01:55;24.70;;;7.90;;
8219;SDS011;4151;51.110;7.020;2024-03-23T01:04:21;28.67;;;6.60;;
8219;SDS011;4151;51.110;7.020;2024-03-23T01:06:47;31.03;;;7.13;;
8219;SDS011;4151;51.110;7.020;2024-03-23T01:09:12;18.70;;;6.17;;
8219;SDS011;4151;51.110;7.020;2024-03-23T01:11:38;36.70;;;8.27;;
8219;SDS011;4151;51.110;7.020;2024-03-23T01:14:04;15.27;;;5.07;;
8219;SDS011;4151;51.110;7.020;2024-03-23T01:16:31;26.53;;;5.60;;
8219;SDS011;4151;51.110;7.020;2024-03-23T01:18:57;21.93;;;5.20;;
8219;SDS011;4151;51.110;7.020;2024-03-23T01:21:22;11.93;;;4.30;;
8219;SDS011;4151;51.110;7.020;2024-03-23T01:23:48;20.93;;;4.63;;
8219;SDS011;4151;51.110;7.020;2024-03-23T01:26:13;22.00;;;5.30;;
8219;SDS011;4151;51.110;7.020;2024-03-23T01:28:39;24.67;;;3.93;;
8219;SDS011;4151;51.110;7.020;2024-03-23T01:31:05;22.23;;;4.30;;
8219;SDS011;4151;51.110;7.020;2024-03-23T01:33:31;10.67;;;3.60;;
8219;SDS011;4151;51.110;7.020;2024-03-23T01:35:56;13.27;;;3.87;;
8219;SDS011;4151;51.110;7.020;2024-03-23T01:38:22;16.17;;;4.13;;
8219;SDS011;4151;51.110;7.020;2024-03-23T01:40:47;15.30;;;3.93;;
8219;SDS011;4151;51.110;7.020;2024-03-23T01:43:13;18.67;;;4.60;;
8219;SDS011;4151;51.110;7.020;2024-03-23T01:45:39;25.10;;;4.50;;
8219;SDS011;4151;51.110;7.020;2024-03-23T01:48:04;17.40;;;4.47;;
8219;SDS011;4151;51.110;7.020;2024-03-23T01:50:31;13.77;;;3.63;;
8219;SDS011;4151;51.110;7.020;2024-03-23T01:53:01;7.57;;;2.90;;
8219;SDS011;4151;51.110;7.020;2024-03-23T01:55:28;20.23;;;4.37;;
8219;SDS011;4151;51.110;7.020;2024-03-23T01:57:56;17.33;;;4.10;;
8219;SDS011;4151;51.110;7.020;2024-03-23T02:00:22;19.93;;;4.40;;
8219;SDS011;4151;51.110;7.020;2024-03-23T02:02:48;23.70;;;4.13;;
8219;SDS011;4151;51.110;7.020;2024-03-23T02:05:13;15.63;;;3.03;;
8219;SDS011;4151;51.110;7.020;2024-03-23T02:07:40;14.80;;;4.03;;
8219;SDS011;4151;51.110;7.020;2024-03-23T02:10:07;14.93;;;3.60;;
8219;SDS011;4151;51.110;7.020;2024-03-23T02:12:34;12.23;;;3.93;;
8219;SDS011;4151;51.110;7.020;2024-03-23T02:15:00;18.30;;;3.77;;
8219;SDS011;4151;51.110;7.020;2024-03-23T02:17:26;14.57;;;3.77;;
8219;SDS011;4151;51.110;7.020;2024-03-23T02:19:52;23.43;;;4.90;;
8219;SDS011;4151;51.110;7.020;2024-03-23T02:22:18;25.40;;;4.40;;
8219;SDS011;4151;51.110;7.020;2024-03-23T02:24:44;37.17;;;5.20;;
8219;SDS011;4151;51.110;7.020;2024-03-23T02:27:10;22.50;;;4.27;;
8219;SDS011;4151;51.110;7.020;2024-03-23T02:29:36;22.83;;;5.20;;
8219;SDS011;4151;51.110;7.020;2024-03-23T02:32:01;21.20;;;5.60;;
8219;SDS011;4151;51.110;7.020;2024-03-23T02:34:27;17.17;;;6.77;;
8219;SDS011;4151;51.110;7.020;2024-03-23T02:36:53;11.67;;;4.70;;
8219;SDS011;4151;51.110;7.020;2024-03-23T02:39:18;22.17;;;5.00;;
8219;SDS011;4151;51.110;7.020;2024-03-23T02:41:44;21.40;;;5.30;;
8219;SDS011;4151;51.110;7.020;2024-03-23T02:44:10;19.47;;;5.53;;
8219;SDS011;4151;51.110;7.020;2024-03-23T02:46:37;17.47;;;5.87;;
8219;SDS011;4151;51.110;7.020;2024-03-23T02:49:03;16.50;;;4.93;;
8219;SDS011;4151;51.110;7.020;2024-03-23T02:51:29;16.73;;;6.20;;
8219;SDS011;4151;51.110;7.020;2024-03-23T02:53:55;13.90;;;5.47;;
8219;SDS011;4151;51.110;7.020;2024-03-23T02:56:21;14.53;;;4.90;;
8219;SDS011;4151;51.110;7.020;2024-03-23T02:58:46;11.47;;;5.03;;
8219;SDS011;4151;51.110;7.020;2024-03-23T03:01:12;18.20;;;4.70;;
8219;SDS011;4151;51.110;7.020;2024-03-23T03:03:37;16.77;;;5.33;;
8219;SDS011;4151;51.110;7.020;2024-03-23T03:06:04;17.50;;;5.70;;
8219;SDS011;4151;51.110;7.020;2024-03-23T03:08:30;17.90;;;5.47;;
8219;SDS011;4151;51.110;7.020;2024-03-23T03:10:55;16.53;;;5.83;;
8219;SDS011;4151;51.110;7.020;2024-03-23T03:13:21;14.50;;;5.37;;
8219;SDS011;4151;51.110;7.020;2024-03-23T03:15:46;23.13;;;4.97;;
8219;SDS011;4151;51.110;7.020;2024-03-23T03:18:12;13.87;;;5.00;;
8219;SDS011;4151;51.110;7.020;2024-03-23T03:20:38;18.80;;;5.33;;
8219;SDS011;4151;51.110;7.020;2024-03-23T03:23:05;13.43;;;4.63;;
8219;SDS011;4151;51.110;7.020;2024-03-23T03:25:31;16.13;;;6.23;;
8219;SDS011;4151;51.110;7.020;2024-03-23T03:27:57;17.20;;;5.40;;
8219;SDS011;4151;51.110;7.020;2024-03-23T03:30:22;20.73;;;5.50;;
8219;SDS011;4151;51.110;7.020;2024-03-23T03:32:49;21.17;;;5.50;;
8219;SDS011;4151;51.110;7.020;2024-03-23T03:35:14;17.23;;;4.53;;
8219;SDS011;4151;51.110;7.020;2024-03-23T03:37:40;18.43;;;3.87;;
8219;SDS011;4151;51.110;7.020;2024-03-23T03:40:06;16.67;;;5.03;;
8219;SDS011;4151;51.110;7.020;2024-03-23T03:42:33;12.63;;;5.20;;
8219;SDS011;4151;51.110;7.020;2024-03-23T03:44:59;12.73;;;5.27;;
8219;SDS011;4151;51.110;7.020;2024-03-23T03:47:25;18.20;;;5.50;;
8219;SDS011;4151;51.110;7.020;2024-03-23T03:49:51;14.97;;;5.10;;
8219;SDS011;4151;51.110;7.020;2024-03-23T03:52:16;13.40;;;5.13;;
8219;SDS011;4151;51.110;7.020;2024-03-23T03:54:42;25.30;;;6.13;;
8219;SDS011;4151;51.110;7.020;2024-03-23T03:57:07;13.43;;;5.47;;
8219;SDS011;4151;51.110;7.020;2024-03-23T03:59:33;17.40;;;5.07;;
8219;SDS011;4151;51.110;7.020;2024-03-23T04:01:59;15.07;;;4.70;;
8219;SDS011;4151;51.110;7.020;2024-03-23T04:04:25;10.13;;;3.93;;
8219;SDS011;4151;51.110;7.020;2024-03-23T04:06:57;11.67;;;3.60;;
8219;SDS011;4151;51.110;7.020;2024-03-23T04:09:26;16.80;;;3.67;;
8219;SDS011;4151;51.110;7.020;2024-03-23T04:11:52;12.63;;;3.33;;
8219;SDS011;4151;51.110;7.020;2024-03-23T04:14:17;25.17;;;4.07;;
8219;SDS011;4151;51.110;7.020;2024-03-23T04:16:43;13.30;;;4.57;;
8219;SDS011;4151;51.110;7.020;2024-03-23T04:19:09;18.23;;;3.60;;
8219;SDS011;4151;51.110;7.020;2024-03-23T04:21:35;11.20;;;3.33;;
8219;SDS011;4151;51.110;7.020;2024-03-23T04:24:02;25.30;;;3.23;;
8219;SDS011;4151;51.110;7.020;2024-03-23T04:26:28;10.37;;;3.17;;
8219;SDS011;4151;51.110;7.020;2024-03-23T04:28:53;16.80;;;2.83;;
8219;SDS011;4151;51.110;7.020;2024-03-23T04:31:19;22.37;;;3.97;;
8219;SDS011;4151;51.110;7.020;2024-03-23T04:33:44;14.30;;;3.50;;
8219;SDS011;4151;51.110;7.020;2024-03-23T04:36:10;11.60;;;3.90;;
8219;SDS011;4151;51.110;7.020;2024-03-23T04:38:35;14.53;;;3.63;;
8219;SDS011;4151;51.110;7.020;2024-03-23T04:41:01;15.30;;;4.43;;
8219;SDS011;4151;51.110;7.020;2024-03-23T04:43:27;8.53;;;3.10;;
8219;SDS011;4151;51.110;7.020;2024-03-23T04:45:52;17.60;;;3.17;;
8219;SDS011;4151;51.110;7.020;2024-03-23T04:48:20;13.00;;;3.20;;
8219;SDS011;4151;51.110;7.020;2024-03-23T04:50:47;20.73;;;4.80;;
8219;SDS011;4151;51.110;7.020;2024-03-23T04:53:13;11.87;;;3.90;;
8219;SDS011;4151;51.110;7.020;2024-03-23T04:55:38;9.30;;;3.10;;
8219;SDS011;4151;51.110;7.020;2024-03-23T04:58:04;7.60;;;3.53;;
8219;SDS011;4151;51.110;7.020;2024-03-23T05:00:29;17.67;;;4.17;;
8219;SDS011;4151;51.110;7.020;2024-03-23T05:02:55;23.13;;;3.50;;
8219;SDS011;4151;51.110;7.020;2024-03-23T05:05:20;19.97;;;4.73;;
8219;SDS011;4151;51.110;7.020;2024-03-23T05:07:46;13.37;;;3.37;;
8219;SDS011;4151;51.110;7.020;2024-03-23T05:10:11;12.27;;;2.47;;
8219;SDS011;4151;51.110;7.020;2024-03-23T05:12:38;7.43;;;2.43;;
8219;SDS011;4151;51.110;7.020;2024-03-23T05:15:04;26.87;;;4.23;;
8219;SDS011;4151;51.110;7.020;2024-03-23T05:17:31;21.37;;;3.37;;
8219;SDS011;4151;51.110;7.020;2024-03-23T05:19:58;31.17;;;3.20;;
8219;SDS011;4151;51.110;7.020;2024-03-23T05:22:23;17.33;;;3.27;;
8219;SDS011;4151;51.110;7.020;2024-03-23T05:24:49;7.53;;;2.73;;
8219;SDS011;4151;51.110;7.020;2024-03-23T05:27:14;14.37;;;3.10;;
8219;SDS011;4151;51.110;7.020;2024-03-23T05:29:40;20.43;;;3.17;;
8219;SDS011;4151;51.110;7.020;2024-03-23T05:32:06;16.83;;;3.00;;
8219;SDS011;4151;51.110;7.020;2024-03-23T05:34:31;18.33;;;2.50;;
8219;SDS011;4151;51.110;7.020;2024-03-23T05:36:57;17.30;;;3.37;;
8219;SDS011;4151;51.110;7.020;2024-03-23T05:39:23;22.37;;;3.73;;
8219;SDS011;4151;51.110;7.020;2024-03-23T05:41:49;16.60;;;3.10;;
8219;SDS011;4151;51.110;7.020;2024-03-23T05:44:15;16.37;;;3.30;;
8219;SDS011;4151;51.110;7.020;2024-03-23T05:46:41;16.00;;;3.33;;
8219;SDS011;4151;51.110;7.020;2024-03-23T05:49:06;23.20;;;3.90;;
8219;SDS011;4151;51.110;7.020;2024-03-23T05:51:32;27.50;;;3.80;;
8219;SDS011;4151;51.110;7.020;2024-03-23T05:53:58;12.50;;;3.27;;
8219;SDS011;4151;51.110;7.020;2024-03-23T05:56:24;9.90;;;2.93;;
8219;SDS011;4151;51.110;7.020;2024-03-23T05:58:51;15.53;;;4.50;;
8219;SDS011;4151;51.110;7.020;2024-03-23T06:01:16;22.83;;;3.73;;
8219;SDS011;4151;51.110;7.020;2024-03-23T06:03:42;14.37;;;4.57;;
8219;SDS011;4151;51.110;7.020;2024-03-23T06:06:08;22.07;;;4.03;;
8219;SDS011;4151;51.110;7.020;2024-03-23T06:08:36;21.47;;;3.80;;
8219;SDS011;4151;51.110;7.020;2024-03-23T06:11:03;15.10;;;4.10;;
8219;SDS011;4151;51.110;7.020;2024-03-23T06:13:31;15.97;;;4.10;;
8219;SDS011;4151;51.110;7.020;2024-03-23T06:15:57;24.03;;;4.20;;
8219;SDS011;4151;51.110;7.020;2024-03-23T06:18:23;26.17;;;5.73;;
8219;SDS011;4151;51.110;7.020;2024-03-23T06:20:49;20.30;;;3.60;;
8219;SDS011;4151;51.110;7.020;2024-03-23T06:23:15;12.30;;;3.30;;
8219;SDS011;4151;51.110;7.020;2024-03-23T06:25:42;9.97;;;3.57;;
8219;SDS011;4151;51.110;7.020;2024-03-23T06:28:08;21.80;;;4.57;;
8219;SDS011;4151;51.110;7.020;2024-03-23T06:30:33;24.50;;;4.30;;
8219;SDS011;4151;51.110;7.020;2024-03-23T06:32:59;16.40;;;4.30;;
8219;SDS011;4151;51.110;7.020;2024-03-23T06:35:24;26.70;;;4.47;;
8219;SDS011;4151;51.110;7.020;2024-03-23T06:37:50;17.30;;;4.37;;
8219;SDS011;4151;51.110;7.020;2024-03-23T06:40:15;13.33;;;3.90;;
8219;SDS011;4151;51.110;7.020;2024-03-23T06:42:41;21.13;;;4.20;;
8219;SDS011;4151;51.110;7.020;2024-03-23T06:45:07;10.33;;;3.93;;
8219;SDS011;4151;51.110;7.020;2024-03-23T06:47:33;24.23;;;4.37;;
8219;SDS011;4151;51.110;7.020;2024-03-23T06:50:02;14.40;;;4.50;;
8219;SDS011;4151;51.110;7.020;2024-03-23T06:52:29;12.20;;;3.70;;
8219;SDS011;4151;51.110;7.020;2024-03-23T06:54:54;18.03;;;4.47;;
8219;SDS011;4151;51.110;7.020;2024-03-23T06:57:20;9.70;;;3.57;;
8219;SDS011;4151;51.110;7.020;2024-03-23T06:59:46;35.23;;;4.87;;
8219;SDS011;4151;51.110;7.020;2024-03-23T07:02:12;12.67;;;4.33;;
8219;SDS011;4151;51.110;7.020;2024-03-23T07:04:38;21.23;;;4.93;;
8219;SDS011;4151;51.110;7.020;2024-03-23T07:07:06;23.60;;;7.47;;
8219;SDS011;4151;51.110;7.020;2024-03-23T07:09:32;18.30;;;4.67;;
8219;SDS011;4151;51.110;7.020;2024-03-23T07:11:58;26.50;;;6.50;;
8219;SDS011;4151;51.110;7.020;2024-03-23T07:14:24;27.27;;;5.90;;
8219;SDS011;4151;51.110;7.020;2024-03-23T07:16:49;17.57;;;6.23;;
8219;SDS011;4151;51.110;7.020;2024-03-23T07:19:16;37.83;;;7.30;;
8219;SDS011;4151;51.110;7.020;2024-03-23T07:21:42;22.73;;;7.07;;
8219;SDS011;4151;51.110;7.020;2024-03-23T07:24:09;26.67;;;7.73;;
8219;SDS011;4151;51.110;7.020;2024-03-23T07:26:34;31.97;;;7.20;;
8219;SDS011;4151;51.110;7.020;2024-03-23T07:29:00;21.00;;;5.60;;
8219;SDS011;4151;51.110;7.020;2024-03-23T07:31:26;30.87;;;6.63;;
8219;SDS011;4151;51.110;7.020;2024-03-23T07:33:52;23.30;;;7.23;;
8219;SDS011;4151;51.110;7.020;2024-03-23T07:36:19;26.03;;;6.20;;
8219;SDS011;4151;51.110;7.020;2024-03-23T07:38:44;20.37;;;5.73;;
8219;SDS011;4151;51.110;7.020;2024-03-23T07:41:17;16.60;;;6.00;;
8219;SDS011;4151;51.110;7.020;2024-03-23T07:43:44;25.10;;;6.10;;
8219;SDS011;4151;51.110;7.020;2024-03-23T07:46:10;23.50;;;6.50;;
8219;SDS011;4151;51.110;7.020;2024-03-23T07:48:37;26.27;;;6.00;;
8219;SDS011;4151;51.110;7.020;2024-03-23T07:51:03;24.43;;;5.60;;
8219;SDS011;4151;51.110;7.020;2024-03-23T07:53:31;29.97;;;6.10;;
8219;SDS011;4151;51.110;7.020;2024-03-23T07:55:57;24.97;;;5.40;;
8219;SDS011;4151;51.110;7.020;2024-03-23T07:58:28;17.40;;;4.53;;
8219;SDS011;4151;51.110;7.020;2024-03-23T08:01:01;15.60;;;5.17;;
8219;SDS011;4151;51.110;7.020;2024-03-23T08:03:36;40.50;;;5.73;;
8219;SDS011;4151;51.110;7.020;2024-03-23T08:06:21;34.37;;;5.40;;
8219;SDS011;4151;51.110;7.020;2024-03-23T08:08:54;25.83;;;5.97;;
8219;SDS011;4151;51.110;7.020;2024-03-23T08:11:27;21.63;;;4.90;;
8219;SDS011;4151;51.110;7.020;2024-03-23T08:13:56;49.40;;;16.77;;
8219;SDS011;4151;51.110;7.020;2024-03-23T08:16:23;28.07;;;9.10;;
8219;SDS011;4151;51.110;7.020;2024-03-23T08:18:50;44.97;;;13.53;;
8219;SDS011;4151;51.110;7.020;2024-03-23T08:21:16;19.93;;;5.80;;
8219;SDS011;4151;51.110;7.020;2024-03-23T08:23:43;18.93;;;5.00;;
8219;SDS011;4151;51.110;7.020;2024-03-23T08:26:09;18.77;;;4.80;;
8219;SDS011;4151;51.110;7.020;2024-03-23T08:28:36;24.57;;;4.67;;
8219;SDS011;4151;51.110;7.020;2024-03-23T08:31:12;15.43;;;5.00;;
8219;SDS011;4151;51.110;7.020;2024-03-23T08:33:39;15.80;;;4.23;;
8219;SDS011;4151;51.110;7.020;2024-03-23T08:36:07;10.57;;;3.53;;
8219;SDS011;4151;51.110;7.020;2024-03-23T08:38:34;11.67;;;3.67;;
8219;SDS011;4151;51.110;7.020;2024-03-23T08:43:26;13.17;;;2.83;;
8219;SDS011;4151;51.110;7.020;2024-03-23T08:45:52;28.07;;;3.40;;
8219;SDS011;4151;51.110;7.020;2024-03-23T08:48:20;11.07;;;2.77;;
8219;SDS011;4151;51.110;7.020;2024-03-23T08:50:46;12.80;;;3.43;;
8219;SDS011;4151;51.110;7.020;2024-03-23T08:53:22;9.67;;;2.80;;
8219;SDS011;4151;51.110;7.020;2024-03-23T08:55:53;12.40;;;3.40;;
8219;SDS011;4151;51.110;7.020;2024-03-23T08:58:19;15.90;;;2.93;;
8219;SDS011;4151;51.110;7.020;2024-03-23T09:00:45;15.53;;;3.10;;
8219;SDS011;4151;51.110;7.020;2024-03-23T09:03:11;13.77;;;2.50;;
8219;SDS011;4151;51.110;7.020;2024-03-23T09:05:40;10.47;;;2.83;;
8219;SDS011;4151;51.110;7.020;2024-03-23T09:08:06;19.23;;;2.90;;
8219;SDS011;4151;51.110;7.020;2024-03-23T09:10:34;9.80;;;2.30;;
8219;SDS011;4151;51.110;7.020;2024-03-23T09:13:03;26.50;;;4.33;;
8219;SDS011;4151;51.110;7.020;2024-03-23T09:15:29;10.33;;;2.80;;
8219;SDS011;4151;51.110;7.020;2024-03-23T09:17:54;12.60;;;3.30;;
8219;SDS011;4151;51.110;7.020;2024-03-23T09:20:20;13.37;;;2.67;;
8219;SDS011;4151;51.110;7.020;2024-03-23T09:22:47;16.50;;;3.30;;
8219;SDS011;4151;51.110;7.020;2024-03-23T09:25:13;12.43;;;3.60;;
8219;SDS011;4151;51.110;7.020;2024-03-23T09:27:39;7.03;;;2.80;;
8219;SDS011;4151;51.110;7.020;2024-03-23T09:30:05;14.43;;;3.60;;
8219;SDS011;4151;51.110;7.020;2024-03-23T09:32:31;15.13;;;2.97;;
8219;SDS011;4151;51.110;7.020;2024-03-23T09:34:56;13.60;;;3.37;;
8219;SDS011;4151;51.110;7.020;2024-03-23T09:37:22;13.50;;;3.50;;
8219;SDS011;4151;51.110;7.020;2024-03-23T09:39:47;15.33;;;3.40;;
8219;SDS011;4151;51.110;7.020;2024-03-23T09:42:13;5.60;;;2.67;;
8219;SDS011;4151;51.110;7.020;2024-03-23T09:44:39;7.63;;;2.60;;
8219;SDS011;4151;51.110;7.020;2024-03-23T09:47:05;11.53;;;3.03;;
8219;SDS011;4151;51.110;7.020;2024-03-23T09:49:33;8.13;;;3.23;;
8219;SDS011;4151;51.110;7.020;2024-03-23T09:52:01;8.43;;;2.47;;
8219;SDS011;4151;51.110;7.020;2024-03-23T09:54:27;10.00;;;2.83;;
8219;SDS011;4151;51.110;7.020;2024-03-23T09:56:53;5.70;;;3.07;;
8219;SDS011;4151;51.110;7.020;2024-03-23T09:59:19;16.90;;;3.50;;
8219;SDS011;4151;51.110;7.020;2024-03-23T10:01:44;5.23;;;2.67;;
8219;SDS011;4151;51.110;7.020;2024-03-23T10:04:10;14.43;;;3.03;;
8219;SDS011;4151;51.110;7.020;2024-03-23T10:06:36;5.73;;;1.83;;
8219;SDS011;4151;51.110;7.020;2024-03-23T10:09:02;10.03;;;1.80;;
8219;SDS011;4151;51.110;7.020;2024-03-23T10:11:43;8.37;;;2.30;;
8219;SDS011;4151;51.110;7.020;2024-03-23T10:14:16;16.43;;;1.87;;
8219;SDS011;4151;51.110;7.020;2024-03-23T10:16:54;6.83;;;1.47;;
8219;SDS011;4151;51.110;7.020;2024-03-23T10:19:39;5.63;;;1.70;;
8219;SDS011;4151;51.110;7.020;2024-03-23T10:22:07;4.93;;;1.90;;
8219;SDS011;4151;51.110;7.020;2024-03-23T10:24:39;4.80;;;2.53;;
8219;SDS011;4151;51.110;7.020;2024-03-23T10:27:05;10.70;;;2.43;;
8219;SDS011;4151;51.110;7.020;2024-03-23T10:29:31;10.17;;;1.83;;
8219;SDS011;4151;51.110;7.020;2024-03-23T10:32:07;11.37;;;1.97;;
8219;SDS011;4151;51.110;7.020;2024-03-23T10:34:36;8.07;;;2.17;;
8219;SDS011;4151;51.110;7.020;2024-03-23T10:37:03;8.10;;;1.47;;
8219;SDS011;4151;51.110;7.020;2024-03-23T10:39:35;7.60;;;1.60;;
8219;SDS011;4151;51.110;7.020;2024-03-23T10:42:03;7.60;;;1.67;;
8219;SDS011;4151;51.110;7.020;2024-03-23T10:44:30;3.43;;;1.50;;
8219;SDS011;4151;51.110;7.020;2024-03-23T10:46:57;5.80;;;1.47;;
8219;SDS011;4151;51.110;7.020;2024-03-23T10:49:29;5.40;;;1.53;;
8219;SDS011;4151;51.110;7.020;2024-03-23T10:52:05;6.47;;;1.53;;
8219;SDS011;4151;51.110;7.020;2024-03-23T10:54:31;13.97;;;2.00;;
8219;SDS011;4151;51.110;7.020;2024-03-23T10:56:59;5.80;;;1.30;;
8219;SDS011;4151;51.110;7.020;2024-03-23T10:59:27;8.63;;;1.77;;
8219;SDS011;4151;51.110;7.020;2024-03-23T11:01:56;11.00;;;1.80;;
8219;SDS011;4151;51.110;7.020;2024-03-23T11:04:33;1.57;;;1.07;;
8219;SDS011;4151;51.110;7.020;2024-03-23T11:09:49;8.07;;;1.50;;
8219;SDS011;4151;51.110;7.020;2024-03-23T11:14:48;4.00;;;1.20;;
8219;SDS011;4151;51.110;7.020;2024-03-23T11:17:19;8.03;;;1.23;;
8219;SDS011;4151;51.110;7.020;2024-03-23T11:19:52;2.83;;;1.23;;
8219;SDS011;4151;51.110;7.020;2024-03-23T11:22:37;2.20;;;0.90;;
8219;SDS011;4151;51.110;7.020;2024-03-23T11:25:14;1.30;;;0.80;;
8219;SDS011;4151;51.110;7.020;2024-03-23T11:27:40;2.77;;;0.87;;
8219;SDS011;4151;51.110;7.020;2024-03-23T11:32:45;0.80;;;0.53;;
8219;SDS011;4151;51.110;7.020;2024-03-23T11:40:37;2.67;;;1.27;;
8219;SDS011;4151;51.110;7.020;2024-03-23T11:43:05;7.57;;;0.80;;
8219;SDS011;4151;51.110;7.020;2024-03-23T11:45:36;1.70;;;0.77;;
8219;SDS011;4151;51.110;7.020;2024-03-23T11:48:05;1.63;;;0.67;;
8219;SDS011;4151;51.110;7.020;2024-03-23T11:50:39;3.53;;;1.07;;
8219;SDS011;4151;51.110;7.020;2024-03-23T11:53:07;1.57;;;0.90;;
8219;SDS011;4151;51.110;7.020;2024-03-23T11:58:28;6.33;;;1.20;;
8219;SDS011;4151;51.110;7.020;2024-03-23T12:01:00;2.30;;;1.30;;
8219;SDS011;4151;51.110;7.020;2024-03-23T12:03:27;3.80;;;1.20;;
8219;SDS011;4151;51.110;7.020;2024-03-23T12:05:54;3.50;;;1.40;;
8219;SDS011;4151;51.110;7.020;2024-03-23T12:08:24;2.93;;;1.10;;
8219;SDS011;4151;51.110;7.020;2024-03-23T12:13:40;9.93;;;1.40;;
8219;SDS011;4151;51.110;7.020;2024-03-23T12:18:40;8.87;;;1.30;;
8219;SDS011;4151;51.110;7.020;2024-03-23T12:21:06;8.73;;;1.80;;
8219;SDS011;4151;51.110;7.020;2024-03-23T12:23:33;1.40;;;0.80;;
8219;SDS011;4151;51.110;7.020;2024-03-23T12:25:59;1.53;;;0.90;;
8219;SDS011;4151;51.110;7.020;2024-03-23T12:28:24;3.23;;;0.70;;
8219;SDS011;4151;51.110;7.020;2024-03-23T12:30:50;2.20;;;1.10;;
8219;SDS011;4151;51.110;7.020;2024-03-23T12:33:20;0.80;;;0.67;;
8219;SDS011;4151;51.110;7.020;2024-03-23T12:35:46;2.53;;;0.90;;
8219;SDS011;4151;51.110;7.020;2024-03-23T12:38:12;6.20;;;0.70;;
8219;SDS011;4151;51.110;7.020;2024-03-23T12:40:37;1.83;;;1.43;;
8219;SDS011;4151;51.110;7.020;2024-03-23T12:43:03;4.20;;;1.00;;
8219;SDS011;4151;51.110;7.020;2024-03-23T12:45:29;0.90;;;0.90;;
8219;SDS011;4151;51.110;7.020;2024-03-23T12:47:54;1.83;;;1.00;;
8219;SDS011;4151;51.110;7.020;2024-03-23T12:50:20;1.40;;;0.60;;
8219;SDS011;4151;51.110;7.020;2024-03-23T12:52:46;1.77;;;0.87;;
8219;SDS011;4151;51.110;7.020;2024-03-23T12:55:12;4.00;;;1.13;;
8219;SDS011;4151;51.110;7.020;2024-03-23T12:57:38;1.97;;;1.10;;
8219;SDS011;4151;51.110;7.020;2024-03-23T13:00:05;3.30;;;1.00;;
8219;SDS011;4151;51.110;7.020;2024-03-23T13:02:31;1.67;;;0.83;;
8219;SDS011;4151;51.110;7.020;2024-03-23T13:04:59;3.63;;;0.83;;
8219;SDS011;4151;51.110;7.020;2024-03-23T13:07:25;0.90;;;0.70;;
8219;SDS011;4151;51.110;7.020;2024-03-23T13:09:51;1.93;;;1.10;;
8219;SDS011;4151;51.110;7.020;2024-03-23T13:12:17;0.87;;;0.70;;
8219;SDS011;4151;51.110;7.020;2024-03-23T13:14:46;3.10;;;0.90;;
8219;SDS011;4151;51.110;7.020;2024-03-23T13:17:12;1.20;;;1.07;;
8219;SDS011;4151;51.110;7.020;2024-03-23T13:19:38;2.60;;;1.00;;
8219;SDS011;4151;51.110;7.020;2024-03-23T13:22:04;2.60;;;0.93;;
8219;SDS011;4151;51.110;7.020;2024-03-23T13:24:30;1.37;;;0.80;;
8219;SDS011;4151;51.110;7.020;2024-03-23T13:26:56;5.17;;;1.27;;
8219;SDS011;4151;51.110;7.020;2024-03-23T13:29:22;4.27;;;1.10;;
8219;SDS011;4151;51.110;7.020;2024-03-23T13:31:49;2.10;;;0.83;;
8219;SDS011;4151;51.110;7.020;2024-03-23T13:34:16;8.93;;;1.20;;
8219;SDS011;4151;51.110;7.020;2024-03-23T13:36:42;10.73;;;1.13;;
8219;SDS011;4151;51.110;7.020;2024-03-23T13:39:08;7.17;;;1.10;;
8219;SDS011;4151;51.110;7.020;2024-03-23T13:41:39;4.50;;;1.30;;
8219;SDS011;4151;51.110;7.020;2024-03-23T13:44:09;7.20;;;1.27;;
8219;SDS011;4151;51.110;7.020;2024-03-23T13:46:36;9.73;;;1.50;;
8219;SDS011;4151;51.110;7.020;2024-03-23T13:49:02;4.30;;;1.10;;
8219;SDS011;4151;51.110;7.020;2024-03-23T13:51:28;3.93;;;0.90;;
8219;SDS011;4151;51.110;7.020;2024-03-23T13:53:54;2.20;;;0.90;;
8219;SDS011;4151;51.110;7.020;2024-03-23T13:56:21;3.43;;;0.90;;
8219;SDS011;4151;51.110;7.020;2024-03-23T13:58:50;2.27;;;2.07;;
8219;SDS011;4151;51.110;7.020;2024-03-23T14:01:15;4.50;;;0.80;;
8219;SDS011;4151;51.110;7.020;2024-03-23T14:03:42;4.60;;;1.20;;
8219;SDS011;4151;51.110;7.020;2024-03-23T14:06:08;3.97;;;1.10;;
8219;SDS011;4151;51.110;7.020;2024-03-23T14:08:35;4.20;;;1.17;;
8219;SDS011;4151;51.110;7.020;2024-03-23T14:11:04;4.70;;;1.10;;
8219;SDS011;4151;51.110;7.020;2024-03-23T14:13:30;3.23;;;1.10;;
8219;SDS011;4151;51.110;7.020;2024-03-23T14:15:56;4.73;;;1.53;;
8219;SDS011;4151;51.110;7.020;2024-03-23T14:18:22;6.10;;;1.20;;
8219;SDS011;4151;51.110;7.020;2024-03-23T14:20:48;2.33;;;1.33;;
8219;SDS011;4151;51.110;7.020;2024-03-23T14:23:14;5.23;;;1.13;;
8219;SDS011;4151;51.110;7.020;2024-03-23T14:25:40;2.47;;;0.93;;
8219;SDS011;4151;51.110;7.020;2024-03-23T14:28:06;2.30;;;0.90;;
8219;SDS011;4151;51.110;7.020;2024-03-23T14:30:38;4.20;;;1.20;;
8219;SDS011;4151;51.110;7.020;2024-03-23T14:33:04;6.70;;;1.30;;
8219;SDS011;4151;51.110;7.020;2024-03-23T14:35:30;7.23;;;1.47;;
8219;SDS011;4151;51.110;7.020;2024-03-23T14:37:57;2.70;;;0.80;;
8219;SDS011;4151;51.110;7.020;2024-03-23T14:40:23;2.10;;;0.97;;
8219;SDS011;4151;51.110;7.020;2024-03-23T14:42:51;4.23;;;1.80;;
8219;SDS011;4151;51.110;7.020;2024-03-23T14:45:17;11.10;;;1.53;;
8219;SDS011;4151;51.110;7.020;2024-03-23T14:47:42;2.37;;;1.20;;
8219;SDS011;4151;51.110;7.020;2024-03-23T14:50:08;5.60;;;1.50;;
8219;SDS011;4151;51.110;7.020;2024-03-23T14:52:36;4.50;;;1.13;;
8219;SDS011;4151;51.110;7.020;2024-03-23T14:55:02;1.67;;;0.87;;
8219;SDS011;4151;51.110;7.020;2024-03-23T14:57:28;3.57;;;1.23;;
8219;SDS011;4151;51.110;7.020;2024-03-23T14:59:54;2.50;;;1.33;;
8219;SDS011;4151;51.110;7.020;2024-03-23T15:02:20;1.20;;;1.10;;
8219;SDS011;4151;51.110;7.020;2024-03-23T15:04:45;5.77;;;1.20;;
8219;SDS011;4151;51.110;7.020;2024-03-23T15:07:11;3.23;;;0.90;;
8219;SDS011;4151;51.110;7.020;2024-03-23T15:09:36;4.30;;;1.17;;
8219;SDS011;4151;51.110;7.020;2024-03-23T15:12:02;2.30;;;1.17;;
8219;SDS011;4151;51.110;7.020;2024-03-23T15:14:28;2.33;;;1.10;;
8219;SDS011;4151;51.110;7.020;2024-03-23T15:16:53;1.17;;;0.80;;
8219;SDS011;4151;51.110;7.020;2024-03-23T15:19:19;2.93;;;1.40;;
8219;SDS011;4151;51.110;7.020;2024-03-23T15:21:44;2.10;;;0.90;;
8219;SDS011;4151;51.110;7.020;2024-03-23T15:24:10;2.60;;;1.30;;
8219;SDS011;4151;51.110;7.020;2024-03-23T15:26:38;2.50;;;0.70;;
8219;SDS011;4151;51.110;7.020;2024-03-23T15:29:04;1.47;;;0.90;;
8219;SDS011;4151;51.110;7.020;2024-03-23T15:31:37;3.57;;;0.80;;
8219;SDS011;4151;51.110;7.020;2024-03-23T15:34:03;1.70;;;0.90;;
8219;SDS011;4151;51.110;7.020;2024-03-23T15:36:29;0.90;;;0.70;;
8219;SDS011;4151;51.110;7.020;2024-03-23T15:38:55;0.87;;;0.70;;
8219;SDS011;4151;51.110;7.020;2024-03-23T15:41:20;3.97;;;0.90;;
8219;SDS011;4151;51.110;7.020;2024-03-23T15:43:48;3.17;;;1.00;;
8219;SDS011;4151;51.110;7.020;2024-03-23T15:46:14;2.70;;;0.97;;
8219;SDS011;4151;51.110;7.020;2024-03-23T15:48:40;6.67;;;1.50;;
8219;SDS011;4151;51.110;7.020;2024-03-23T15:51:11;2.53;;;0.97;;
8219;SDS011;4151;51.110;7.020;2024-03-23T15:53:36;2.13;;;1.00;;
8219;SDS011;4151;51.110;7.020;2024-03-23T15:56:02;1.20;;;0.90;;
8219;SDS011;4151;51.110;7.020;2024-03-23T15:58:29;1.63;;;1.00;;
8219;SDS011;4151;51.110;7.020;2024-03-23T16:03:28;3.73;;;1.27;;
8219;SDS011;4151;51.110;7.020;2024-03-23T16:05:56;1.93;;;1.00;;
8219;SDS011;4151;51.110;7.020;2024-03-23T16:08:22;3.17;;;1.40;;
8219;SDS011;4151;51.110;7.020;2024-03-23T16:10:48;2.50;;;1.30;;
8219;SDS011;4151;51.110;7.020;2024-03-23T16:13:15;1.93;;;1.20;;
8219;SDS011;4151;51.110;7.020;2024-03-23T16:15:41;2.40;;;1.10;;
8219;SDS011;4151;51.110;7.020;2024-03-23T16:18:07;1.90;;;1.07;;
8219;SDS011;4151;51.110;7.020;2024-03-23T16:20:33;1.40;;;1.00;;
8219;SDS011;4151;51.110;7.020;2024-03-23T16:23:02;1.20;;;0.80;;
8219;SDS011;4151;51.110;7.020;2024-03-23T16:25:28;3.57;;;0.90;;